Latest Weather Observations for Essendon Airport

IDV60901

Issued at 8:01 pm EST Wednesday 12 August 2020 (issued every 10 minutes, with the page automatically refreshed every 10 minutes)

About weather observations | Map of Melbourne area stations | Latest observations for Melbourne area | Other Formats
Station Details ID: 086038 Name: ESSENDON AIRPORT Lat: -37.73 Lon: 144.91 Height: 78.4 m
Data from the previous 72 hours. | See also: Recent months at Essendon Airport
Date/Time
EST
Temp
°C
App
Temp
°C
Dew
Point
°C
Rel
Hum
%
Delta-T
°C
Wind Press
QNH
hPa
Press
MSL
hPa
Rain since
9am
mm
Dir  Spd
km/h
Gust
km/h
Spd
kts
Gust
kts
12/08:00pm 12.8 7.8 9.6 81 1.6 N 26 39 14 21 1008.8 1008.9 0.0
12/07:30pm 12.5 8.7 9.7 83 1.4 N 20 30 11 16 1009.0 1009.1 0.0
12/07:00pm 12.4 8.7 9.6 83 1.4 N 19 26 10 14 1008.6 1008.7 0.0
12/06:30pm 12.3 8.4 9.5 83 1.4 N 20 30 11 16 1008.0 1008.1 0.0
12/06:00pm 12.2 8.9 9.4 83 1.4 NNE 17 26 9 14 1007.8 1007.9 0.0
12/05:30pm 12.5 8.2 9.3 81 1.6 N 22 30 12 16 1007.7 1007.8 0.0
12/05:00pm 12.7 8.4 9.3 80 1.7 N 22 35 12 19 1007.5 1007.6 0.0
12/04:30pm 12.9 9.0 9.5 80 1.7 N 20 28 11 15 1007.5 1007.6 0.0
12/04:00pm 13.0 8.0 9.4 79 1.8 N 26 39 14 21 1007.6 1007.7 0.0
12/03:30pm 13.3 8.3 9.7 79 1.9 N 26 35 14 19 1007.5 1007.6 0.0
12/03:00pm 13.5 8.9 9.7 78 2.0 N 24 32 13 17 1007.7 1007.8 0.0
12/02:30pm 13.4 8.8 9.6 78 2.0 N 24 33 13 18 1007.8 1007.9 0.0
12/02:00pm 13.4 8.8 9.6 78 2.0 N 24 32 13 17 1007.9 1008.0 0.0
12/01:30pm 13.3 7.9 9.4 77 2.0 N 28 39 15 21 1008.3 1008.4 0.0
12/01:15pm 13.5 8.5 9.6 77 2.0 N 26 33 14 18 1008.3 1008.4 0.0
12/01:00pm 13.3 8.3 9.4 77 2.0 N 26 37 14 20 1008.4 1008.5 0.0
12/12:30pm 13.1 7.7 9.5 79 1.8 N 28 39 15 21 1008.8 1008.9 0.0
12/12:00pm 13.0 8.0 9.4 79 1.8 N 26 35 14 19 1009.3 1009.4 0.0
12/11:30am 12.3 6.8 9.0 80 1.7 N 28 39 15 21 1009.5 1009.6 0.0
12/11:20am 12.9 7.8 9.2 78 1.9 N 26 37 14 20 1009.7 1009.8 0.0
12/11:00am 12.5 6.2 9.0 79 1.8 N 32 46 17 25 1009.6 1009.7 0.0
12/10:30am 12.6 7.0 8.9 78 1.9 N 28 43 15 23 1009.7 1009.8 0.0
12/10:00am 12.6 6.7 9.1 79 1.8 N 30 44 16 24 1009.8 1009.9 0.0
12/09:30am 12.4 6.1 9.1 80 1.7 N 32 43 17 23 1010.2 1010.3 0.0
12/09:00am 11.5 5.1 8.7 83 1.4 N 32 43 17 23 1010.3 1010.4 0.2
12/08:30am 10.7 5.8 8.5 86 1.1 N 24 37 13 20 1010.6 1010.7 0.2
12/08:00am 10.5 5.6 8.3 86 1.1 N 24 33 13 18 1010.8 1010.9 0.2
12/07:30am 10.4 5.8 8.2 86 1.1 N 22 30 12 16 1010.9 1011.0 0.2
12/07:00am 10.4 5.4 8.2 86 1.1 N 24 35 13 19 1010.8 1010.9 0.2
12/06:30am 10.4 5.8 8.2 86 1.1 N 22 33 12 18 1010.7 1010.8 0.2
12/06:00am 10.4 6.2 8.2 86 1.1 N 20 30 11 16 1010.9 1011.0 0.2
12/05:30am 10.3 6.1 8.1 86 1.1 N 20 32 11 17 1011.0 1011.1 0.2
12/05:00am 10.4 6.3 8.0 85 1.2 N 19 26 10 14 1011.0 1011.1 0.2
12/04:30am 10.3 6.1 8.1 86 1.1 N 20 35 11 19 1010.7 1010.8 0.2
12/04:00am 10.4 6.2 8.2 86 1.1 N 20 35 11 19 1010.8 1010.9 0.2
12/03:30am 11.0 7.7 7.9 81 1.5 N 15 24 8 13 1011.1 1011.2 0.2
12/03:00am 10.8 7.1 8.0 83 1.4 NNE 17 26 9 14 1011.1 1011.2 0.2
12/02:30am 12.0 7.7 7.1 72 2.4 N 19 28 10 15 1011.5 1011.6 0.0
12/02:00am 11.8 8.2 6.9 72 2.4 N 15 20 8 11 1011.8 1011.9 0.0
12/01:30am 12.0 8.7 6.5 69 2.6 NNE 13 19 7 10 1012.2 1012.3 0.0
12/01:00am 11.8 7.7 6.1 68 2.7 NNE 17 26 9 14 1012.4 1012.5 0.0
12/12:30am 11.8 6.7 6.1 68 2.7 NNE 22 33 12 18 1012.4 1012.5 0.0
12/12:00am 11.7 7.0 6.0 68 2.7 NNE 20 30 11 16 1012.6 1012.7 0.0
 
Date/Time
EST
Temp
°C
App
Temp
°C
Dew
Point
°C
Rel
Hum
%
Delta-T
°C
Wind Press
QNH
hPa
Press
MSL
hPa
Rain since
9am
mm
Dir  Spd
km/h
Gust
km/h
Spd
kts
Gust
kts
11/11:30pm 11.6 6.9 5.9 68 2.7 NNE 20 33 11 18 1013.0 1013.1 0.0
11/11:00pm 11.5 6.0 5.8 68 2.7 NNE 24 32 13 17 1012.9 1013.0 0.0
11/10:30pm 11.1 6.5 5.6 69 2.5 NNE 19 28 10 15 1013.4 1013.5 0.0
11/10:00pm 11.3 6.7 5.6 68 2.6 NNE 19 32 10 17 1013.6 1013.7 0.0
11/09:30pm 11.0 6.8 5.7 70 2.5 NNE 17 28 9 15 1013.6 1013.7 0.0
11/09:00pm 11.3 5.7 5.6 68 2.6 N 24 32 13 17 1013.8 1013.9 0.0
11/08:30pm 11.4 6.6 5.5 67 2.7 NNE 20 30 11 16 1013.6 1013.7 0.0
11/08:00pm 11.3 7.5 5.6 68 2.6 NNE 15 24 8 13 1014.0 1014.1 0.0
11/07:30pm 11.6 8.5 5.5 66 2.8 N 11 19 6 10 1014.1 1014.2 0.0
11/07:00pm 11.5 7.9 5.2 65 2.9 N 13 19 7 10 1014.1 1014.2 0.0
11/06:30pm 11.7 7.7 4.9 63 3.1 NNE 15 22 8 12 1013.9 1014.0 0.0
11/06:00pm 12.0 6.3 4.7 61 3.3 NNE 24 32 13 17 1013.4 1013.5 0.0
11/05:30pm 12.3 6.5 4.5 59 3.6 NNE 24 33 13 18 1013.3 1013.4 0.0
11/05:00pm 12.5 7.5 4.5 58 3.7 NNE 20 32 11 17 1013.7 1013.8 0.0
11/04:30pm 12.7 7.0 4.9 59 3.6 NNE 24 35 13 19 1013.9 1014.0 0.0
11/04:00pm 12.7 6.4 5.6 62 3.3 NNE 28 35 15 19 1014.2 1014.3 0.0
11/03:30pm 12.8 5.6 5.2 60 3.5 N 32 46 17 25 1014.2 1014.3 0.0
11/03:03pm 13.4 6.3 5.6 59 3.7 N 32 50 17 27 1014.6 1014.8 0.0
11/03:00pm 13.1 6.3 5.0 58 3.8 N 30 46 16 25 1014.8 1015.0 0.0
11/02:58pm 13.0 6.5 4.9 58 3.8 N 28 46 15 25 1014.8 1015.0 0.0
11/02:30pm 13.2 6.9 5.9 61 3.5 N 28 39 15 21 1014.9 1015.1 0.0
11/02:00pm 13.4 7.1 5.8 60 3.6 N 28 39 15 21 1015.7 1015.8 0.0
11/01:30pm 13.6 7.0 6.0 60 3.6 N 30 39 16 21 1016.1 1016.2 0.0
11/01:00pm 13.2 5.8 4.9 57 3.8 N 33 46 18 25 1016.1 1016.2 0.0
11/12:30pm 13.3 6.1 5.0 57 3.9 N 32 44 17 24 1017.1 1017.2 0.0
11/12:00pm 12.9 7.0 6.0 63 3.3 N 26 35 14 19 1017.7 1017.8 0.0
11/11:30am 12.3 6.0 5.7 64 3.1 N 28 39 15 21 1018.0 1018.1 0.0
11/11:00am 11.9 5.9 5.1 63 3.1 N 26 39 14 21 1018.2 1018.3 0.0
11/10:30am 10.9 5.3 5.2 68 2.6 N 24 35 13 19 1018.4 1018.5 0.0
11/10:00am 10.2 4.9 5.2 71 2.3 N 22 32 12 17 1018.6 1018.7 0.0
11/09:30am 9.6 4.3 5.0 73 2.1 N 22 30 12 16 1018.5 1018.6 0.0
11/09:00am 9.8 5.6 5.6 75 1.9 N 17 22 9 12 1018.6 1018.7 0.2
11/08:30am 8.2 5.0 5.3 82 1.3 N 11 15 6 8 1018.8 1018.9 0.2
11/08:00am 7.2 3.9 4.7 84 1.1 NNW 11 17 6 9 1019.3 1019.4 0.2
11/07:30am 6.2 4.2 4.5 89 0.7 NNW 4 11 2 6 1019.0 1019.1 0.2
11/07:00am 5.6 3.8 3.6 87 0.8 NNW 2 7 1 4 1018.7 1018.8 0.2
11/06:30am 6.0 2.2 3.7 85 1.0 N 13 17 7 9 1018.3 1018.4 0.2
11/06:00am 6.8 3.4 3.9 82 1.2 NNW 11 13 6 7 1018.4 1018.5 0.2
11/05:30am 6.4 3.4 4.1 85 1.0 N 9 13 5 7 1018.5 1018.6 0.2
11/05:00am 6.0 2.9 3.8 86 0.9 NNE 9 11 5 6 1018.8 1018.9 0.2
11/04:30am 5.7 3.0 3.7 87 0.8 NNE 7 9 4 5 1019.3 1019.4 0.2
11/04:00am 5.8 2.3 3.3 84 1.0 NNE 11 13 6 7 1019.3 1019.4 0.2
11/03:30am 6.0 2.6 4.2 88 0.8 N 11 15 6 8 1019.1 1019.2 0.2
11/03:00am 6.4 2.6 4.1 85 1.0 N 13 15 7 8 1019.3 1019.4 0.2
11/02:30am 6.3 2.8 3.6 83 1.1 NNW 11 15 6 8 1019.5 1019.6 0.2
11/02:00am 7.1 3.3 4.1 81 1.3 NNW 13 17 7 9 1019.5 1019.6 0.2
11/01:30am 7.0 3.2 4.0 81 1.3 NNW 13 17 7 9 1019.4 1019.5 0.2
11/01:00am 7.3 3.2 4.1 80 1.4 NNW 15 22 8 12 1019.2 1019.3 0.2
11/12:30am 6.5 4.8 4.0 84 1.1 N 2 7 1 4 1019.3 1019.4 0.2
11/12:00am 6.7 3.8 4.4 85 1.0 N 9 11 5 6 1019.5 1019.6 0.2
 
Date/Time
EST
Temp
°C
App
Temp
°C
Dew
Point
°C
Rel
Hum
%
Delta-T
°C
Wind Press
QNH
hPa
Press
MSL
hPa
Rain since
9am
mm
Dir  Spd
km/h
Gust
km/h
Spd
kts
Gust
kts
10/11:30pm 6.9 4.3 4.4 84 1.1 N 7 11 4 6 1019.6 1019.7 0.2
10/11:00pm 6.8 3.6 5.1 89 0.7 N 11 11 6 6 1019.9 1020.0 0.2
10/10:30pm 6.3 3.0 4.8 90 0.7 N 11 13 6 7 1020.1 1020.2 0.2
10/10:00pm 7.4 3.9 5.5 88 0.8 NW 13 17 7 9 1020.2 1020.3 0.2
10/09:30pm 8.2 5.7 6.7 90 0.7 NNW 9 11 5 6 1020.1 1020.2 0.2
10/09:00pm 8.0 5.4 6.3 89 0.8 NNW 9 11 5 6 1019.9 1020.0 0.2
10/08:30pm 8.8 6.2 6.1 83 1.2 NW 9 11 5 6 1020.0 1020.1 0.2
10/08:00pm 10.3 9.1 6.3 76 1.9 ENE 2 9 1 5 1020.0 1020.1 0.2
10/07:30pm 10.6 9.7 6.2 74 2.1 CALM 0 0 0 0 1019.7 1019.8 0.2
10/07:00pm 10.8 9.9 6.2 73 2.1 CALM 0 0 0 0 1019.5 1019.6 0.2
10/06:30pm 11.7 9.7 6.4 70 2.5 ENE 6 7 3 4 1018.9 1019.0 0.2
10/06:00pm 12.3 10.3 6.1 66 2.9 ENE 6 7 3 4 1018.8 1018.9 0.2
10/05:30pm 12.8 10.8 6.2 64 3.1 ENE 6 11 3 6 1018.8 1018.9 0.2
10/05:00pm 14.5 13.5 5.8 56 4.1 CALM 0 0 0 0 1018.9 1019.0 0.2
10/04:30pm 14.8 12.5 5.6 54 4.4 NNW 7 11 4 6 1019.3 1019.4 0.2
10/04:00pm 15.6 13.9 7.4 58 4.1 NE 6 9 3 5 1019.6 1019.7 0.2
10/03:30pm 15.4 13.9 6.7 56 4.3 NNW 4 9 2 5 1020.0 1020.1 0.2
10/03:00pm 14.7 13.3 5.5 54 4.4 N 2 9 1 5 1020.1 1020.2 0.2
10/02:30pm 14.5 13.3 6.6 59 3.8 NW 2 6 1 3 1020.2 1020.3 0.2
10/02:00pm 13.7 11.8 6.8 63 3.3 SSW 6 9 3 5 1020.5 1020.6 0.2
10/01:30pm 13.2 11.4 7.0 66 3.0 SW 6 13 3 7 1020.8 1020.9 0.2
10/01:00pm 14.1 12.4 7.6 65 3.2 N 6 7 3 4 1021.1 1021.2 0.2
10/12:30pm 13.4 11.8 8.0 70 2.7 SW 6 11 3 6 1021.6 1021.7 0.0
10/12:00pm 11.7 9.4 7.6 76 2.0 W 9 13 5 7 1022.3 1022.4 0.0
10/11:44am 11.1 8.7 7.2 77 1.9 W 9 15 5 8 1022.6 1022.7 0.0
10/11:34am 11.2 9.2 7.1 76 2.0 WSW 7 13 4 7 1022.8 1022.9 0.0
10/11:30am 11.4 9.5 7.5 77 1.9 SW 7 11 4 6 1022.8 1022.9 0.0
10/11:00am 10.8 10.1 6.9 77 1.8 CALM 0 6 0 3 1022.9 1023.0 0.0
10/10:56am 11.4 10.9 7.9 79 1.7 CALM 0 0 0 0 1022.9 1023.0 0.0
10/10:30am 10.3 8.6 7.7 84 1.3 WNW 6 9 3 5 1022.8 1022.9 0.0
10/10:09am 9.7 7.9 8.0 89 0.8 WNW 7 13 4 7 1023.1 1023.2 0.0
10/10:00am 9.2 7.3 7.6 90 0.8 WNW 7 11 4 6 1023.2 1023.3 0.0
10/09:30am 8.9 7.1 8.0 94 0.4 WNW 7 9 4 5 1023.1 1023.2 0.0
10/09:13am 8.5 6.3 7.7 95 0.4 WNW 9 11 5 6 1023.2 1023.3 0.0
10/09:00am 7.8 5.4 7.2 96 0.3 WNW 9 13 5 7 1023.2 1023.3 0.0
10/08:30am 6.4 3.4 6.1 98 0.1 WNW 11 13 6 7 1023.2 1023.3 0.0
10/08:21am 6.3 2.9 6.0 98 0.1 NW 13 15 7 8 1023.1 1023.2 0.0
10/08:00am 5.9 2.4 5.6 98 0.1 WNW 13 15 7 8 1022.8 1022.9 0.0
10/07:30am 5.2 2.0 4.9 98 0.1 W 11 13 6 7 1022.5 1022.6 0.0
10/07:00am 5.4 2.2 5.1 98 0.1 WNW 11 13 6 7 1022.2 1022.3 0.0
10/06:30am 4.5 1.9 4.2 98 0.1 NW 7 11 4 6 1022.1 1022.2 0.0
10/06:00am 4.9 1.6 4.5 97 0.2 NNW 11 13 6 7 1021.8 1021.9 0.0
10/05:30am 6.0 5.0 5.6 97 0.2 CALM 0 0 0 0 1021.9 1022.0 0.0
10/05:00am 5.9 3.7 5.3 96 0.3 SE 6 7 3 4 1021.8 1021.9 0.0
10/04:30am 6.6 5.7 6.0 96 0.3 CALM 0 0 0 0 1021.8 1021.9 0.0
10/04:00am 6.5 5.2 5.8 95 0.3 SE 2 7 1 4 1021.5 1021.6 0.0
10/03:30am 6.8 4.6 6.1 95 0.3 SE 7 11 4 6 1021.3 1021.4 0.0
10/03:00am 7.1 4.6 6.4 95 0.3 ESE 9 15 5 8 1021.4 1021.5 0.0
10/02:30am 7.4 2.8 6.7 95 0.3 SE 20 32 11 17 1021.3 1021.4 0.0
10/02:00am 7.0 4.0 6.1 94 0.4 SE 11 13 6 7 1021.5 1021.6 0.0
10/01:30am 7.4 4.5 6.3 93 0.5 SE 11 15 6 8 1021.6 1021.7 0.0
10/01:00am 7.9 4.7 6.7 92 0.6 SSE 13 17 7 9 1021.5 1021.6 0.0
10/12:30am 8.1 4.2 6.9 92 0.6 SE 17 22 9 12 1021.4 1021.5 0.0
10/12:00am 8.2 4.9 6.5 89 0.8 SE 13 20 7 11 1021.3 1021.4 0.0
 
Date/Time
EST
Temp
°C
App
Temp
°C
Dew
Point
°C
Rel
Hum
%
Delta-T
°C
Wind Press
QNH
hPa
Press
MSL
hPa
Rain since
9am
mm
Dir  Spd
km/h
Gust
km/h
Spd
kts
Gust
kts
09/11:30pm 8.8 4.5 6.8 87 0.9 SE 19 30 10 16 1021.3 1021.4 0.0
09/11:00pm 8.6 4.6 6.6 87 0.9 SE 17 20 9 11 1021.4 1021.5 0.0
09/10:30pm 8.8 4.9 6.9 88 0.9 SE 17 24 9 13 1021.4 1021.5 0.0
09/10:00pm 9.2 4.9 7.2 87 0.9 SE 19 24 10 13 1021.6 1021.7 0.0
09/09:30pm 9.4 5.5 7.3 87 1.0 SE 17 20 9 11 1021.5 1021.6 0.0
09/09:00pm 9.8 5.6 7.6 86 1.1 SE 19 28 10 15 1021.4 1021.5 0.0
09/08:30pm 9.8 5.4 7.4 85 1.1 SE 20 30 11 16 1021.4 1021.5 0.0

Latest Capital City Observations: Canberra | Sydney | Melbourne | Brisbane | Adelaide | Perth | Hobart | Darwin

Other formats

Comma delimited format used in spreadsheet applications
http://www.bom.gov.au/fwo/IDV60901/IDV60901.95866.axf

JavaScript Object Notation format (JSON) in row-major order
http://www.bom.gov.au/fwo/IDV60901/IDV60901.95866.json

Data quality

Most of these data are generated automatically and are frequently updated. Quality checks on data are not normally performed. It is possible for incorrect values to appear. Refer to information at About Latest Weather Observations and please check the disclaimer before using these data.